createdAt,value
2019-02-16T00:01:27.174Z,25.78
2019-02-16T00:06:30.207Z,25.50
2019-02-16T00:11:33.201Z,25.40
2019-02-16T00:16:36.344Z,25.44
2019-02-16T00:21:39.357Z,25.41
2019-02-16T00:26:42.471Z,25.45
2019-02-16T00:31:45.494Z,25.46
2019-02-16T00:36:48.766Z,25.38
2019-02-16T00:41:51.994Z,25.34
2019-02-16T00:46:55.151Z,25.85
2019-02-16T00:51:58.154Z,26.00
2019-02-16T00:57:01.226Z,26.23
2019-02-16T01:02:04.161Z,26.01
2019-02-16T01:07:07.243Z,26.47
2019-02-16T01:12:10.546Z,26.55
2019-02-16T01:17:13.706Z,26.56
2019-02-16T01:22:16.681Z,26.52
2019-02-16T01:27:19.668Z,26.67
2019-02-16T01:32:22.814Z,26.49
2019-02-16T01:37:25.775Z,26.17
2019-02-16T01:42:28.931Z,25.98
2019-02-16T01:47:31.892Z,25.98
2019-02-16T01:52:35.076Z,26.02
2019-02-16T01:57:37.998Z,26.31
2019-02-16T02:02:41.055Z,26.33
2019-02-16T02:07:44.062Z,26.20
2019-02-16T02:12:47.054Z,26.34
2019-02-16T02:17:50.045Z,26.27
2019-02-16T02:22:53.055Z,26.20
2019-02-16T02:27:56.159Z,26.38
2019-02-16T02:32:59.352Z,26.13
2019-02-16T02:38:02.474Z,25.94
2019-02-16T02:43:05.534Z,25.95
2019-02-16T02:48:08.889Z,25.94
2019-02-16T02:53:12.152Z,25.97
2019-02-16T02:58:15.236Z,25.95
2019-02-16T03:03:18.177Z,25.86
2019-02-16T03:08:21.533Z,25.87
2019-02-16T03:13:24.456Z,25.90
2019-02-16T03:18:27.730Z,25.93
2019-02-16T03:23:31.525Z,25.97
2019-02-16T03:29:33.553Z,25.97
2019-02-16T03:34:50.818Z,25.84
2019-02-16T03:39:53.755Z,25.89
2019-02-16T03:44:56.842Z,25.87
2019-02-16T03:49:59.777Z,25.82
2019-02-16T03:55:02.915Z,25.91
2019-02-16T04:00:06.975Z,25.82
2019-02-16T04:05:09.898Z,25.83
2019-02-16T04:10:12.848Z,25.77
2019-02-16T04:15:16.045Z,25.85
2019-02-16T04:20:19.081Z,25.83
2019-02-16T04:25:22.124Z,25.84
2019-02-16T04:30:25.086Z,25.85
2019-02-16T04:35:28.075Z,25.88
2019-02-16T04:40:31.329Z,25.80
2019-02-16T04:45:34.362Z,25.82
2019-02-16T04:50:37.298Z,25.72
2019-02-16T04:55:40.294Z,25.69
2019-02-16T05:00:43.366Z,25.79
2019-02-16T05:05:46.463Z,25.68
2019-02-16T05:10:49.437Z,25.69
2019-02-16T05:15:52.407Z,25.75
2019-02-16T05:20:55.368Z,25.71
2019-02-16T05:25:58.558Z,25.75
2019-02-16T05:31:01.524Z,25.78
2019-02-16T05:36:04.566Z,25.72
2019-02-16T05:41:07.549Z,25.71
2019-02-16T05:46:10.540Z,25.82
2019-02-16T05:51:13.626Z,25.70
2019-02-16T05:56:16.825Z,25.68
2019-02-16T06:01:19.792Z,25.64
2019-02-16T06:06:22.760Z,25.68
2019-02-16T06:11:25.795Z,25.66
2019-02-16T06:16:29.132Z,25.72
2019-02-16T06:21:32.083Z,25.74
2019-02-16T06:26:35.028Z,25.70
2019-02-16T06:31:37.982Z,25.75
2019-02-16T06:36:42.029Z,25.69
2019-02-16T06:41:45.265Z,25.61
2019-02-16T06:46:48.491Z,25.65
2019-02-16T06:51:51.440Z,25.67
2019-02-16T06:57:03.999Z,25.73
2019-02-16T07:02:07.081Z,25.63
2019-02-16T07:07:10.090Z,25.71
2019-02-16T07:12:13.213Z,25.66
2019-02-16T07:17:41.797Z,25.72
2019-02-16T07:22:44.803Z,25.70
2019-02-16T07:27:47.877Z,25.63
2019-02-16T07:32:50.859Z,25.67
2019-02-16T07:37:53.931Z,25.80
2019-02-16T07:42:57.904Z,25.75
2019-02-16T07:48:09.092Z,25.74
2019-02-16T07:53:34.647Z,25.74
2019-02-16T07:59:09.225Z,25.73
2019-02-16T08:04:30.465Z,25.69
2019-02-16T08:09:41.774Z,25.73
2019-02-16T08:14:54.016Z,25.70
2019-02-16T08:20:14.299Z,25.70
2019-02-16T08:25:40.076Z,25.71
2019-02-16T08:31:00.455Z,25.80
2019-02-16T08:36:19.754Z,25.79
2019-02-16T08:41:57.645Z,25.78
2019-02-16T08:47:24.112Z,25.75
2019-02-16T08:52:45.352Z,25.83
2019-02-16T08:57:59.245Z,25.89
2019-02-16T09:03:20.453Z,25.86
2019-02-16T09:08:43.111Z,25.79
2019-02-16T09:14:03.912Z,25.70
2019-02-16T09:19:17.876Z,25.79
2019-02-16T09:24:40.504Z,25.73
2019-02-16T09:30:09.333Z,25.70
2019-02-16T09:35:38.123Z,25.79
2019-02-16T09:40:50.134Z,25.76
2019-02-16T09:46:04.451Z,25.71
2019-02-16T09:51:13.434Z,25.79
2019-02-16T09:56:38.245Z,25.82
2019-02-16T10:02:00.581Z,25.81
2019-02-16T10:07:38.145Z,25.81
2019-02-16T10:12:48.215Z,25.81
2019-02-16T10:18:09.207Z,25.75
2019-02-16T10:23:34.858Z,25.92
2019-02-16T10:28:57.404Z,25.80
2019-02-16T10:34:18.731Z,25.74
2019-02-16T10:39:44.044Z,25.78
2019-02-16T10:45:02.034Z,25.76
2019-02-16T10:50:24.088Z,25.81
2019-02-16T10:55:45.566Z,25.87
2019-02-16T11:01:09.161Z,25.87
2019-02-16T11:06:23.314Z,25.75
2019-02-16T11:11:48.892Z,25.78
2019-02-16T11:17:17.306Z,25.75
2019-02-16T11:22:45.657Z,25.84
2019-02-16T11:28:10.946Z,25.78
2019-02-16T11:33:39.608Z,25.78
2019-02-16T11:39:07.531Z,25.76
2019-02-16T11:44:19.241Z,25.88
2019-02-16T11:49:45.021Z,25.71
2019-02-16T11:55:06.314Z,26.00
2019-02-16T12:00:40.088Z,26.11
2019-02-16T12:05:49.077Z,26.23
2019-02-16T12:11:17.415Z,26.02
2019-02-16T12:16:40.018Z,25.85
2019-02-16T12:22:02.562Z,26.08
2019-02-16T12:27:24.236Z,25.71
2019-02-16T12:32:46.770Z,25.54
2019-02-16T12:37:55.673Z,25.72
2019-02-16T12:43:11.906Z,25.59
2019-02-16T12:48:52.460Z,25.50
2019-02-16T12:54:17.965Z,25.39
2019-02-16T12:59:33.625Z,25.85
2019-02-16T13:05:11.567Z,25.52
2019-02-16T13:10:43.143Z,25.77
2019-02-16T13:16:04.797Z,26.01
2019-02-16T13:21:30.260Z,26.03
2019-02-16T13:26:52.797Z,26.02
2019-02-16T13:32:20.251Z,26.08
2019-02-16T13:37:41.444Z,26.12
2019-02-16T13:43:09.695Z,26.11
2019-02-16T13:48:29.559Z,26.04
2019-02-16T13:53:49.523Z,26.14
2019-02-16T13:59:18.236Z,26.08
2019-02-16T14:04:52.888Z,26.06
2019-02-16T14:10:06.170Z,26.10
2019-02-16T14:15:40.888Z,26.06
2019-02-16T14:20:43.881Z,26.09
2019-02-16T14:25:47.923Z,26.06
2019-02-16T14:30:50.983Z,26.04
2019-02-16T14:35:53.953Z,25.90
2019-02-16T14:40:57.302Z,25.88
2019-02-16T14:46:00.407Z,26.02
2019-02-16T14:51:03.665Z,26.03
2019-02-16T14:56:06.633Z,26.01
2019-02-16T15:01:09.582Z,26.01
2019-02-16T15:06:12.543Z,26.02
2019-02-16T15:11:15.503Z,25.87
2019-02-16T15:16:18.485Z,25.67
2019-02-16T15:21:21.676Z,25.64
2019-02-16T15:26:28.546Z,25.64
2019-02-16T15:31:29.756Z,25.59
2019-02-16T15:36:32.840Z,25.60
2019-02-16T15:41:35.807Z,25.67
2019-02-16T15:46:38.745Z,25.66
2019-02-16T15:51:41.704Z,25.66
2019-02-16T15:56:44.710Z,25.62
2019-02-16T16:01:48.692Z,25.59
2019-02-16T16:06:52.132Z,25.59
2019-02-16T16:12:26.816Z,25.61
2019-02-16T16:17:47.874Z,25.57
2019-02-16T16:22:57.880Z,25.72
2019-02-16T16:28:23.368Z,25.75
2019-02-16T16:33:51.846Z,25.76
2019-02-16T16:39:08.975Z,25.60
2019-02-16T16:44:43.874Z,25.82
2019-02-16T16:50:06.436Z,26.07
2019-02-16T16:55:31.734Z,26.07
2019-02-16T17:00:45.114Z,26.07
2019-02-16T17:06:22.890Z,26.19
2019-02-16T17:11:48.211Z,26.23
2019-02-16T17:17:17.040Z,26.47
2019-02-16T17:22:29.215Z,26.51
2019-02-16T17:27:51.896Z,26.34
2019-02-16T17:33:07.517Z,26.23
2019-02-16T17:38:24.359Z,26.38
2019-02-16T17:44:01.804Z,26.21
2019-02-16T17:49:23.222Z,26.09
2019-02-16T17:54:34.030Z,26.10
2019-02-16T17:59:49.519Z,26.19
2019-02-16T18:05:07.421Z,26.21
2019-02-16T18:10:30.130Z,26.15
2019-02-16T18:15:52.699Z,26.18
2019-02-16T18:21:02.411Z,26.34
2019-02-16T18:26:34.138Z,26.45
2019-02-16T18:31:53.323Z,26.43
2019-02-16T18:37:18.970Z,26.68
2019-02-16T18:42:35.285Z,26.52
2019-02-16T18:47:56.377Z,26.28
2019-02-16T18:53:19.391Z,26.14
2019-02-16T18:58:39.492Z,26.13
2019-02-16T19:04:00.776Z,26.34
